Tyndall Air Force Base
KPAM : now visible

Airfield :











YOU CAN JOIN US ON...

 
LOGIN :

Register | Disclaimer

   EN    FR    IT 

 









Legend :    VFR   Marginal VFR   IFR   Intensive IFR   Very Intensive IFR
Visi :
Ceiling :
>= 8 km
>= 3000ft
5 to 8 km
1000 to 3000 ft
1500m to 5 km
500 to 1000 ft
800 to 1500m
200 to 500 ft
< 800m
< 200 ft
Symbols :   Thunderstorms  Fog  Heavy snow  Heavy precipitations  Wind > 20 kt






- Airport Elevation : 17 ft


KPAM - Tyndall Air Force Base

CURRENT METAR :
  • 212356Z AUTO 05010KT 10SM FEW050 SCT060 24/21 A3004 RMK AO2 SLP175 60000 T02440205 10308 20244 53012 $

EXPIRED METARs :
  • 212256Z AUTO 03008KT 10SM CLR 26/21 A3002 RMK AO2 SLP169 T02630210 $
  • 212231Z AUTO 04010G16KT 10SM SCT038 28/21 A3001 RMK AO2 SLP165 $
  • 212156Z AUTO 08004KT 10SM FEW080 28/21 A3001 RMK AO2 LTG DSNT NE RAB28E36DZB36E38RAB38E39 SLP165 P0000 T02810209 $
  • 212139Z AUTO 12008KT 10SM FEW060 SCT085 28/21 A3001 RMK AO2 LTG DSNT NE RAB28E36DZB36E38RAB38E39 SLP165 $

TAF AMD TAF KPAM
Valid from the 21 at 21:00 until the 23 at 01:00 UTC


212125Z 2121/2301 07009KT 9999 BKN030 QNH2999INS
TEMPO 2121/2123 6000 -TSRA BKN025CB
BECMG 2200/2201 07006KT 9999 BKN025 QNH2998INS
BECMG 2212/2213 08012G18KT 9999 SCT030 QNH3001INS
TEMPO 2217/2221 8000 -SHRA BKN040
BECMG 2220/2221 09009KT 9999 SCT040 QNH2995INS TX30/2121Z TN23/2209Z LAST NO AMDS AFT 2123 NEXT 2211
KZJX FIR / North America



MET'MAP, your aeronautical weather chart ! - Copyright ORBIFLY December 2007 - Disclaimer

ORBIFLY MET'MAP TEAM :

Programming & Development : Alexandra Zaïnal
Concept & original design : Baudouin d'Aumeries
Assistance for programming : Marc-Olivier Méhu
Technical & hardware support : Manuel Goepfert

Contact : metmap@orbifly.com




SOURCES & CREDITS :

   NOAA       Earth
Advisory